sensor_id;sensor_type;location;lat;lon;timestamp;pressure;altitude;pressure_sealevel;temperature;humidity
22311;BME280;11323;49.610;11.016;2023-05-03T00:01:00;98992.59;;;17.37;59.79
22311;BME280;11323;49.610;11.016;2023-05-03T00:06:13;99000.00;;;17.41;59.53
22311;BME280;11323;49.610;11.016;2023-05-03T00:11:14;98998.66;;;17.37;59.69
22311;BME280;11323;49.610;11.016;2023-05-03T00:16:15;98992.75;;;17.35;59.41
22311;BME280;11323;49.610;11.016;2023-05-03T00:21:15;98991.28;;;17.33;59.88
22311;BME280;11323;49.610;11.016;2023-05-03T00:26:16;98996.34;;;17.34;59.77
22311;BME280;11323;49.610;11.016;2023-05-03T00:31:16;98990.94;;;17.36;59.62
22311;BME280;11323;49.610;11.016;2023-05-03T00:36:17;99000.00;;;17.33;59.85
22311;BME280;11323;49.610;11.016;2023-05-03T00:41:17;98993.59;;;17.27;59.44
22311;BME280;11323;49.610;11.016;2023-05-03T00:46:18;99006.25;;;17.32;59.79
22311;BME280;11323;49.610;11.016;2023-05-03T00:51:19;99001.31;;;17.29;59.71
22311;BME280;11323;49.610;11.016;2023-05-03T00:56:21;98998.03;;;17.27;59.75
22311;BME280;11323;49.610;11.016;2023-05-03T01:01:22;98998.88;;;17.27;59.84
22311;BME280;11323;49.610;11.016;2023-05-03T01:11:46;98988.47;;;17.26;59.48
22311;BME280;11323;49.610;11.016;2023-05-03T01:16:56;98990.44;;;17.24;59.79
22311;BME280;11323;49.610;11.016;2023-05-03T01:22:09;98981.91;;;17.22;59.47
22311;BME280;11323;49.610;11.016;2023-05-03T01:27:13;98978.63;;;17.20;59.78
22311;BME280;11323;49.610;11.016;2023-05-03T01:32:18;98974.34;;;17.19;59.60
22311;BME280;11323;49.610;11.016;2023-05-03T01:37:22;98973.16;;;17.21;59.69
22311;BME280;11323;49.610;11.016;2023-05-03T01:42:23;98978.63;;;17.20;59.50
22311;BME280;11323;49.610;11.016;2023-05-03T01:47:24;98977.63;;;17.21;59.39
22311;BME280;11323;49.610;11.016;2023-05-03T01:52:26;98982.91;;;17.21;59.64
22311;BME280;11323;49.610;11.016;2023-05-03T01:57:26;98974.00;;;17.22;59.77
22311;BME280;11323;49.610;11.016;2023-05-03T02:02:27;98971.84;;;17.17;59.58
22311;BME280;11323;49.610;11.016;2023-05-03T02:07:27;98981.56;;;17.17;59.65
22311;BME280;11323;49.610;11.016;2023-05-03T02:12:28;98976.63;;;17.13;59.58
22311;BME280;11323;49.610;11.016;2023-05-03T02:17:28;98970.38;;;17.14;60.02
22311;BME280;11323;49.610;11.016;2023-05-03T02:22:28;98968.91;;;17.12;59.71
22311;BME280;11323;49.610;11.016;2023-05-03T02:27:29;98974.19;;;17.12;59.72
22311;BME280;11323;49.610;11.016;2023-05-03T02:32:29;98975.34;;;17.09;59.86
22311;BME280;11323;49.610;11.016;2023-05-03T02:37:29;98975.34;;;17.09;59.94
22311;BME280;11323;49.610;11.016;2023-05-03T02:42:30;98979.75;;;17.09;59.72
22311;BME280;11323;49.610;11.016;2023-05-03T02:47:31;98985.50;;;17.12;59.61
22311;BME280;11323;49.610;11.016;2023-05-03T02:52:32;98964.16;;;16.99;59.61
22311;BME280;11323;49.610;11.016;2023-05-03T02:57:33;98975.47;;;17.08;59.89
22311;BME280;11323;49.610;11.016;2023-05-03T03:02:34;98981.59;;;17.08;59.72
22311;BME280;11323;49.610;11.016;2023-05-03T03:07:36;98989.31;;;17.10;59.54
22311;BME280;11323;49.610;11.016;2023-05-03T03:12:38;98991.28;;;17.08;59.54
22311;BME280;11323;49.610;11.016;2023-05-03T03:17:42;98970.06;;;17.01;59.46
22311;BME280;11323;49.610;11.016;2023-05-03T03:22:44;98982.09;;;17.04;59.77
22311;BME280;11323;49.610;11.016;2023-05-03T03:27:45;98978.94;;;17.00;59.67
22311;BME280;11323;49.610;11.016;2023-05-03T03:32:46;98993.44;;;17.04;59.79
22311;BME280;11323;49.610;11.016;2023-05-03T03:37:53;98989.47;;;17.00;59.78
22311;BME280;11323;49.610;11.016;2023-05-03T03:42:55;98992.09;;;17.00;59.65
22311;BME280;11323;49.610;11.016;2023-05-03T03:47:55;98995.75;;;16.99;59.76
22311;BME280;11323;49.610;11.016;2023-05-03T03:52:57;98991.47;;;16.98;60.07
22311;BME280;11323;49.610;11.016;2023-05-03T03:57:58;99014.31;;;16.97;60.03
22311;BME280;11323;49.610;11.016;2023-05-03T04:03:00;99021.56;;;16.95;60.46
22311;BME280;11323;49.610;11.016;2023-05-03T04:08:01;99019.91;;;16.94;59.90
22311;BME280;11323;49.610;11.016;2023-05-03T04:13:04;99020.06;;;16.93;60.15
22311;BME280;11323;49.610;11.016;2023-05-03T04:18:06;99024.19;;;16.95;60.10
22311;BME280;11323;49.610;11.016;2023-05-03T04:23:09;99035.84;;;16.93;60.50
22311;BME280;11323;49.610;11.016;2023-05-03T04:28:10;99047.09;;;16.95;60.11
22311;BME280;11323;49.610;11.016;2023-05-03T04:33:14;99053.34;;;16.94;59.97
22311;BME280;11323;49.610;11.016;2023-05-03T04:38:16;99062.34;;;16.91;59.93
22311;BME280;11323;49.610;11.016;2023-05-03T04:43:18;99069.28;;;16.92;59.89
22311;BME280;11323;49.610;11.016;2023-05-03T04:48:20;99070.41;;;16.90;59.92
22311;BME280;11323;49.610;11.016;2023-05-03T04:53:21;99073.03;;;16.90;59.83
22311;BME280;11323;49.610;11.016;2023-05-03T04:58:31;99082.59;;;16.91;59.90
22311;BME280;11323;49.610;11.016;2023-05-03T05:03:31;99075.16;;;16.86;59.71
22311;BME280;11323;49.610;11.016;2023-05-03T05:08:35;99079.31;;;16.89;59.88
22311;BME280;11323;49.610;11.016;2023-05-03T05:13:39;99076.81;;;16.87;59.93
22311;BME280;11323;49.610;11.016;2023-05-03T05:18:39;99084.56;;;16.89;59.95
22311;BME280;11323;49.610;11.016;2023-05-03T05:23:42;99089.84;;;16.89;60.06
22311;BME280;11323;49.610;11.016;2023-05-03T05:28:43;99089.84;;;16.89;60.65
22311;BME280;11323;49.610;11.016;2023-05-03T05:33:43;99081.28;;;16.87;61.14
22311;BME280;11323;49.610;11.016;2023-05-03T05:38:45;99097.06;;;16.87;61.36
22311;BME280;11323;49.610;11.016;2023-05-03T05:43:45;99107.59;;;16.87;61.24
22311;BME280;11323;49.610;11.016;2023-05-03T05:48:46;99096.13;;;16.96;61.68
22311;BME280;11323;49.610;11.016;2023-05-03T05:53:47;99096.13;;;16.96;61.49
22311;BME280;11323;49.610;11.016;2023-05-03T05:58:49;99101.41;;;16.96;61.70
22311;BME280;11323;49.610;11.016;2023-05-03T06:03:50;99108.97;;;16.99;61.15
22311;BME280;11323;49.610;11.016;2023-05-03T06:08:50;99100.19;;;16.90;61.20
22311;BME280;11323;49.610;11.016;2023-05-03T06:13:50;99104.69;;;16.98;61.70
22311;BME280;11323;49.610;11.016;2023-05-03T06:18:52;99109.63;;;17.01;61.27
22311;BME280;11323;49.610;11.016;2023-05-03T06:23:52;99101.41;;;17.04;61.15
22311;BME280;11323;49.610;11.016;2023-05-03T06:28:53;99109.66;;;17.09;61.36
22311;BME280;11323;49.610;11.016;2023-05-03T06:33:54;99102.56;;;17.10;61.05
22311;BME280;11323;49.610;11.016;2023-05-03T06:38:54;99104.88;;;17.13;61.12
22311;BME280;11323;49.610;11.016;2023-05-03T06:43:55;99111.94;;;17.12;60.56
22311;BME280;11323;49.610;11.016;2023-05-03T06:48:57;99112.94;;;17.11;60.52
22311;BME280;11323;49.610;11.016;2023-05-03T06:53:58;99114.75;;;17.11;60.00
22311;BME280;11323;49.610;11.016;2023-05-03T06:59:06;99112.28;;;17.09;60.14
22311;BME280;11323;49.610;11.016;2023-05-03T07:04:07;99105.69;;;17.05;60.21
22311;BME280;11323;49.610;11.016;2023-05-03T07:09:08;99103.72;;;17.07;60.06
22311;BME280;11323;49.610;11.016;2023-05-03T07:14:09;99096.97;;;17.05;59.85
22311;BME280;11323;49.610;11.016;2023-05-03T07:19:10;99099.44;;;17.06;59.93
22311;BME280;11323;49.610;11.016;2023-05-03T07:24:10;99090.88;;;17.04;59.94
22311;BME280;11323;49.610;11.016;2023-05-03T07:29:11;99088.22;;;17.04;59.96
22311;BME280;11323;49.610;11.016;2023-05-03T07:34:12;99085.59;;;17.04;60.05
22311;BME280;11323;49.610;11.016;2023-05-03T07:39:12;99086.59;;;17.03;59.99
22311;BME280;11323;49.610;11.016;2023-05-03T07:44:12;99068.31;;;17.02;59.66
22311;BME280;11323;49.610;11.016;2023-05-03T07:49:13;99071.09;;;17.00;59.91
22311;BME280;11323;49.610;11.016;2023-05-03T07:54:13;99068.47;;;17.00;59.71
22311;BME280;11323;49.610;11.016;2023-05-03T07:59:14;99065.53;;;17.03;59.83
22311;BME280;11323;49.610;11.016;2023-05-03T08:04:14;99055.31;;;17.00;59.46
22311;BME280;11323;49.610;11.016;2023-05-03T08:09:14;99051.06;;;17.07;59.37
22311;BME280;11323;49.610;11.016;2023-05-03T08:14:15;99047.44;;;17.08;59.44
22311;BME280;11323;49.610;11.016;2023-05-03T08:19:15;99052.69;;;17.08;59.51
22311;BME280;11323;49.610;11.016;2023-05-03T08:24:16;99055.34;;;17.08;59.50
22311;BME280;11323;49.610;11.016;2023-05-03T08:29:16;99057.97;;;17.08;59.41
22311;BME280;11323;49.610;11.016;2023-05-03T08:34:16;99051.53;;;17.11;59.85
22311;BME280;11323;49.610;11.016;2023-05-03T08:39:17;99045.41;;;16.86;58.42
22311;BME280;11323;49.610;11.016;2023-05-03T08:44:22;99064.34;;;17.06;58.51
22311;BME280;11323;49.610;11.016;2023-05-03T08:49:23;99050.19;;;16.90;57.88
22311;BME280;11323;49.610;11.016;2023-05-03T08:54:23;99052.34;;;17.03;57.34
22311;BME280;11323;49.610;11.016;2023-05-03T08:59:23;99049.88;;;17.02;57.32
22311;BME280;11323;49.610;11.016;2023-05-03T09:04:32;99056.94;;;17.01;57.37
22311;BME280;11323;49.610;11.016;2023-05-03T09:09:33;99052.22;;;17.05;58.13
22311;BME280;11323;49.610;11.016;2023-05-03T09:14:44;99050.38;;;16.97;54.46
22311;BME280;11323;49.610;11.016;2023-05-03T09:19:52;99051.00;;;16.91;57.06
22311;BME280;11323;49.610;11.016;2023-05-03T09:24:57;99064.69;;;16.94;56.63
22311;BME280;11323;49.610;11.016;2023-05-03T09:30:16;99061.72;;;16.97;57.06
22311;BME280;11323;49.610;11.016;2023-05-03T09:35:17;99065.03;;;17.00;57.28
22311;BME280;11323;49.610;11.016;2023-05-03T09:40:17;99057.44;;;16.96;57.15
22311;BME280;11323;49.610;11.016;2023-05-03T09:45:22;99053.00;;;16.97;57.47
22311;BME280;11323;49.610;11.016;2023-05-03T09:50:23;99053.63;;;16.82;54.38
22311;BME280;11323;49.610;11.016;2023-05-03T09:55:24;99044.25;;;16.80;56.12
22311;BME280;11323;49.610;11.016;2023-05-03T10:00:25;99041.44;;;16.90;56.59
22311;BME280;11323;49.610;11.016;2023-05-03T10:05:30;99033.88;;;16.87;56.73
22311;BME280;11323;49.610;11.016;2023-05-03T10:10:33;99034.69;;;16.79;53.60
22311;BME280;11323;49.610;11.016;2023-05-03T10:15:34;99035.53;;;16.88;56.53
22311;BME280;11323;49.610;11.016;2023-05-03T10:20:49;99026.97;;;16.86;57.05
22311;BME280;11323;49.610;11.016;2023-05-03T10:31:43;99018.22;;;16.77;55.13
22311;BME280;11323;49.610;11.016;2023-05-03T10:36:49;99015.13;;;16.81;56.09
22311;BME280;11323;49.610;11.016;2023-05-03T10:42:02;99008.88;;;16.74;56.11
22311;BME280;11323;49.610;11.016;2023-05-03T10:47:12;99015.94;;;16.82;56.14
22311;BME280;11323;49.610;11.016;2023-05-03T10:57:41;99003.91;;;16.79;56.42
22311;BME280;11323;49.610;11.016;2023-05-03T11:03:21;99011.81;;;16.79;55.28
22311;BME280;11323;49.610;11.016;2023-05-03T11:08:25;98997.66;;;16.80;56.74
22311;BME280;11323;49.610;11.016;2023-05-03T11:13:27;99000.97;;;16.74;56.52
22311;BME280;11323;49.610;11.016;2023-05-03T11:18:27;99000.47;;;16.79;55.43
22311;BME280;11323;49.610;11.016;2023-05-03T11:23:28;98993.06;;;16.74;53.50
22311;BME280;11323;49.610;11.016;2023-05-03T11:28:28;98976.25;;;16.67;52.44
22311;BME280;11323;49.610;11.016;2023-05-03T11:33:29;98978.94;;;16.75;53.02
22311;BME280;11323;49.610;11.016;2023-05-03T11:38:34;98978.88;;;16.67;54.00
22311;BME280;11323;49.610;11.016;2023-05-03T11:43:43;98979.06;;;16.74;55.23
22311;BME280;11323;49.610;11.016;2023-05-03T11:48:44;98973.31;;;16.62;53.27
22311;BME280;11323;49.610;11.016;2023-05-03T11:53:44;98980.22;;;16.71;55.50
22311;BME280;11323;49.610;11.016;2023-05-03T11:58:55;98973.97;;;16.72;53.88
22311;BME280;11323;49.610;11.016;2023-05-03T12:03:58;98968.41;;;16.75;53.58
22311;BME280;11323;49.610;11.016;2023-05-03T12:09:00;98970.00;;;16.68;53.95
22311;BME280;11323;49.610;11.016;2023-05-03T12:14:01;98957.03;;;16.75;55.61
22311;BME280;11323;49.610;11.016;2023-05-03T12:19:02;98957.50;;;16.78;55.78
22311;BME280;11323;49.610;11.016;2023-05-03T12:24:02;98955.06;;;16.77;55.33
22311;BME280;11323;49.610;11.016;2023-05-03T12:29:03;98951.94;;;16.81;56.26
22311;BME280;11323;49.610;11.016;2023-05-03T12:34:03;98941.41;;;16.81;56.08
22311;BME280;11323;49.610;11.016;2023-05-03T12:39:04;98941.22;;;16.75;52.16
22311;BME280;11323;49.610;11.016;2023-05-03T12:44:07;98938.59;;;16.75;54.80
22311;BME280;11323;49.610;11.016;2023-05-03T12:49:08;98937.28;;;16.79;52.26
22311;BME280;11323;49.610;11.016;2023-05-03T12:54:08;98943.38;;;16.79;52.82
22311;BME280;11323;49.610;11.016;2023-05-03T12:59:10;98920.53;;;16.72;54.05
22311;BME280;11323;49.610;11.016;2023-05-03T13:04:11;98925.94;;;16.78;54.39
22311;BME280;11323;49.610;11.016;2023-05-03T13:09:12;98918.69;;;16.80;54.38
22311;BME280;11323;49.610;11.016;2023-05-03T13:14:15;98907.03;;;16.83;55.44
22311;BME280;11323;49.610;11.016;2023-05-03T13:19:16;98902.91;;;16.80;53.99
22311;BME280;11323;49.610;11.016;2023-05-03T13:24:16;98900.28;;;16.80;55.09
22311;BME280;11323;49.610;11.016;2023-05-03T13:29:16;98886.13;;;16.81;54.32
22311;BME280;11323;49.610;11.016;2023-05-03T13:34:17;98891.72;;;16.87;53.80
22311;BME280;11323;49.610;11.016;2023-05-03T13:39:17;98867.38;;;16.85;53.89
22311;BME280;11323;49.610;11.016;2023-05-03T13:44:19;98870.66;;;16.87;54.65
22311;BME280;11323;49.610;11.016;2023-05-03T13:49:20;98862.41;;;16.90;55.60
22311;BME280;11323;49.610;11.016;2023-05-03T13:54:21;98870.97;;;16.92;54.76
22311;BME280;11323;49.610;11.016;2023-05-03T13:59:21;98867.19;;;16.94;55.68
22311;BME280;11323;49.610;11.016;2023-05-03T14:04:22;98856.66;;;16.94;55.40
22311;BME280;11323;49.610;11.016;2023-05-03T14:09:24;98861.94;;;16.94;55.63
22311;BME280;11323;49.610;11.016;2023-05-03T14:14:26;98874.94;;;16.96;55.81
22311;BME280;11323;49.610;11.016;2023-05-03T14:19:26;98865.03;;;16.90;54.58
22311;BME280;11323;49.610;11.016;2023-05-03T14:24:27;98862.09;;;16.93;54.93
22311;BME280;11323;49.610;11.016;2023-05-03T14:29:27;98846.47;;;16.91;51.19
22311;BME280;11323;49.610;11.016;2023-05-03T14:34:27;98848.91;;;16.93;54.66
22311;BME280;11323;49.610;11.016;2023-05-03T14:39:28;98845.81;;;16.89;52.20
22311;BME280;11323;49.610;11.016;2023-05-03T14:44:28;98846.13;;;16.94;54.62
22311;BME280;11323;49.610;11.016;2023-05-03T14:49:29;98833.81;;;16.95;54.52
22311;BME280;11323;49.610;11.016;2023-05-03T14:54:33;98837.91;;;16.97;55.33
22311;BME280;11323;49.610;11.016;2023-05-03T14:59:34;98837.75;;;16.99;55.06
22311;BME280;11323;49.610;11.016;2023-05-03T15:04:36;98828.84;;;17.00;54.66
22311;BME280;11323;49.610;11.016;2023-05-03T15:09:36;98827.22;;;16.99;55.02
22311;BME280;11323;49.610;11.016;2023-05-03T15:14:38;98823.56;;;17.00;54.74
22311;BME280;11323;49.610;11.016;2023-05-03T15:19:38;98833.44;;;17.06;55.86
22311;BME280;11323;49.610;11.016;2023-05-03T15:24:38;98829.81;;;17.07;55.49
22311;BME280;11323;49.610;11.016;2023-05-03T15:29:39;98821.94;;;17.07;54.97
22311;BME280;11323;49.610;11.016;2023-05-03T15:34:39;98817.31;;;17.09;55.52
22311;BME280;11323;49.610;11.016;2023-05-03T15:39:40;98818.31;;;17.08;55.37
22311;BME280;11323;49.610;11.016;2023-05-03T15:44:40;98816.34;;;17.10;55.56
22311;BME280;11323;49.610;11.016;2023-05-03T15:49:40;98808.44;;;17.10;52.76
22311;BME280;11323;49.610;11.016;2023-05-03T15:54:41;98810.88;;;17.12;55.46
22311;BME280;11323;49.610;11.016;2023-05-03T15:59:41;98807.25;;;17.13;55.72
22311;BME280;11323;49.610;11.016;2023-05-03T16:04:42;98795.88;;;17.12;53.57
22311;BME280;11323;49.610;11.016;2023-05-03T16:09:42;98793.91;;;17.14;55.71
22311;BME280;11323;49.610;11.016;2023-05-03T16:14:42;98800.16;;;17.22;55.63
22311;BME280;11323;49.610;11.016;2023-05-03T16:19:43;98794.38;;;17.18;54.68
22311;BME280;11323;49.610;11.016;2023-05-03T16:24:43;98778.94;;;17.15;51.22
22311;BME280;11323;49.610;11.016;2023-05-03T16:29:45;98784.69;;;17.19;53.25
22311;BME280;11323;49.610;11.016;2023-05-03T16:34:46;98787.66;;;17.16;49.01
22311;BME280;11323;49.610;11.016;2023-05-03T16:39:46;98783.84;;;17.18;50.63
22311;BME280;11323;49.610;11.016;2023-05-03T16:44:47;98784.97;;;17.24;54.16
22311;BME280;11323;49.610;11.016;2023-05-03T16:49:47;98769.03;;;17.25;54.22
22311;BME280;11323;49.610;11.016;2023-05-03T16:54:47;98779.19;;;17.28;52.34
22311;BME280;11323;49.610;11.016;2023-05-03T16:59:48;98781.69;;;17.30;52.97
22311;BME280;11323;49.610;11.016;2023-05-03T17:04:48;98780.97;;;17.36;52.44
22311;BME280;11323;49.610;11.016;2023-05-03T17:09:49;98777.34;;;17.37;53.25
22311;BME280;11323;49.610;11.016;2023-05-03T17:14:50;98770.81;;;17.33;52.57
22311;BME280;11323;49.610;11.016;2023-05-03T17:19:50;98776.34;;;17.38;54.99
22311;BME280;11323;49.610;11.016;2023-05-03T17:24:51;98770.44;;;17.36;54.48
22311;BME280;11323;49.610;11.016;2023-05-03T17:29:54;98775.38;;;17.39;55.78
22311;BME280;11323;49.610;11.016;2023-05-03T17:34:58;98766.47;;;17.40;55.38
22311;BME280;11323;49.610;11.016;2023-05-03T17:39:58;98774.66;;;17.45;56.32
22311;BME280;11323;49.610;11.016;2023-05-03T17:44:59;98784.06;;;17.48;56.84
22311;BME280;11323;49.610;11.016;2023-05-03T17:50:00;98771.53;;;17.50;56.05
22311;BME280;11323;49.610;11.016;2023-05-03T17:55:01;98781.91;;;17.52;56.06
22311;BME280;11323;49.610;11.016;2023-05-03T18:00:03;98775.16;;;17.49;56.14
22311;BME280;11323;49.610;11.016;2023-05-03T18:05:05;98786.16;;;17.53;55.63
22311;BME280;11323;49.610;11.016;2023-05-03T18:10:06;98766.75;;;17.45;56.15
22311;BME280;11323;49.610;11.016;2023-05-03T18:15:07;98780.44;;;17.49;55.91
22311;BME280;11323;49.610;11.016;2023-05-03T18:20:08;98788.69;;;17.46;54.77
22311;BME280;11323;49.610;11.016;2023-05-03T18:25:09;98780.97;;;17.44;55.45
22311;BME280;11323;49.610;11.016;2023-05-03T18:30:10;98787.22;;;17.43;56.34
22311;BME280;11323;49.610;11.016;2023-05-03T18:35:11;98787.69;;;17.47;56.57
22311;BME280;11323;49.610;11.016;2023-05-03T18:40:11;98788.50;;;17.48;56.46
22311;BME280;11323;49.610;11.016;2023-05-03T18:45:12;98793.44;;;17.51;56.51
22311;BME280;11323;49.610;11.016;2023-05-03T18:50:14;98789.16;;;17.50;56.78
22311;BME280;11323;49.610;11.016;2023-05-03T18:55:14;98797.19;;;17.56;55.60
22311;BME280;11323;49.610;11.016;2023-05-03T19:00:15;98803.78;;;17.52;55.38
22311;BME280;11323;49.610;11.016;2023-05-03T19:05:17;98801.97;;;17.53;56.94
22311;BME280;11323;49.610;11.016;2023-05-03T19:10:17;98809.84;;;17.61;57.64
22311;BME280;11323;49.610;11.016;2023-05-03T19:15:19;98813.13;;;17.63;57.60
22311;BME280;11323;49.610;11.016;2023-05-03T19:20:19;98814.78;;;17.64;57.60
22311;BME280;11323;49.610;11.016;2023-05-03T19:25:20;98812.13;;;17.64;57.60
22311;BME280;11323;49.610;11.016;2023-05-03T19:30:20;98815.72;;;17.71;57.29
22311;BME280;11323;49.610;11.016;2023-05-03T19:35:21;98824.47;;;17.72;57.78
22311;BME280;11323;49.610;11.016;2023-05-03T19:40:21;98826.72;;;17.75;57.36
22311;BME280;11323;49.610;11.016;2023-05-03T19:45:23;98826.38;;;17.78;57.98
22311;BME280;11323;49.610;11.016;2023-05-03T19:50:24;98825.56;;;17.78;57.76
22311;BME280;11323;49.610;11.016;2023-05-03T19:55:24;98819.47;;;17.77;57.92
22311;BME280;11323;49.610;11.016;2023-05-03T20:00:25;98821.13;;;17.78;57.75
22311;BME280;11323;49.610;11.016;2023-05-03T20:05:28;98822.75;;;17.79;57.92
22311;BME280;11323;49.610;11.016;2023-05-03T20:10:28;98834.75;;;17.82;57.60
22311;BME280;11323;49.610;11.016;2023-05-03T20:15:35;98845.16;;;17.83;57.76
22311;BME280;11323;49.610;11.016;2023-05-03T20:20:35;98843.84;;;17.79;57.95
22311;BME280;11323;49.610;11.016;2023-05-03T20:25:36;98847.66;;;17.77;57.53
22311;BME280;11323;49.610;11.016;2023-05-03T20:30:37;98840.69;;;17.84;57.55
22311;BME280;11323;49.610;11.016;2023-05-03T20:35:37;98839.88;;;17.83;57.79
22311;BME280;11323;49.610;11.016;2023-05-03T20:40:38;98840.69;;;17.84;57.58
22311;BME280;11323;49.610;11.016;2023-05-03T20:45:39;98836.13;;;17.78;57.85
22311;BME280;11323;49.610;11.016;2023-05-03T20:50:39;98833.50;;;17.78;57.60
22311;BME280;11323;49.610;11.016;2023-05-03T20:55:39;98826.25;;;17.71;57.35
22311;BME280;11323;49.610;11.016;2023-05-03T21:00:41;98839.38;;;17.80;57.85
22311;BME280;11323;49.610;11.016;2023-05-03T21:05:41;98835.13;;;17.79;57.87
22311;BME280;11323;49.610;11.016;2023-05-03T21:10:41;98843.66;;;17.81;57.60
22311;BME280;11323;49.610;11.016;2023-05-03T21:15:42;98842.91;;;17.72;57.78
22311;BME280;11323;49.610;11.016;2023-05-03T21:20:42;98839.09;;;17.74;57.77
22311;BME280;11323;49.610;11.016;2023-05-03T21:25:43;98846.00;;;17.75;57.84
22311;BME280;11323;49.610;11.016;2023-05-03T21:30:43;98843.03;;;17.79;57.64
22311;BME280;11323;49.610;11.016;2023-05-03T21:35:47;98846.31;;;17.81;57.29
22311;BME280;11323;49.610;11.016;2023-05-03T21:40:47;98839.38;;;17.80;57.83
22311;BME280;11323;49.610;11.016;2023-05-03T21:45:47;98834.47;;;17.77;57.70
22311;BME280;11323;49.610;11.016;2023-05-03T21:50:50;98847.66;;;17.77;57.84
22311;BME280;11323;49.610;11.016;2023-05-03T21:55:50;98845.38;;;17.73;57.62
22311;BME280;11323;49.610;11.016;2023-05-03T22:00:51;98837.78;;;17.79;57.90
22311;BME280;11323;49.610;11.016;2023-05-03T22:05:51;98833.81;;;17.74;57.85
22311;BME280;11323;49.610;11.016;2023-05-03T22:10:53;98824.94;;;17.75;57.98
22311;BME280;11323;49.610;11.016;2023-05-03T22:15:55;98825.91;;;17.74;57.88
22311;BME280;11323;49.610;11.016;2023-05-03T22:20:55;98822.63;;;17.72;57.75
22311;BME280;11323;49.610;11.016;2023-05-03T22:25:56;98819.66;;;17.75;57.47
22311;BME280;11323;49.610;11.016;2023-05-03T22:30:57;98824.59;;;17.70;57.75
22311;BME280;11323;49.610;11.016;2023-05-03T22:35:57;98822.97;;;17.69;57.79
22311;BME280;11323;49.610;11.016;2023-05-03T22:40:58;98826.44;;;17.70;57.79
22311;BME280;11323;49.610;11.016;2023-05-03T22:45:58;98822.97;;;17.69;57.61
22311;BME280;11323;49.610;11.016;2023-05-03T22:50:59;98812.78;;;17.66;57.91
22311;BME280;11323;49.610;11.016;2023-05-03T22:56:01;98806.53;;;17.67;57.60
22311;BME280;11323;49.610;11.016;2023-05-03T23:01:08;98818.06;;;17.66;57.77
22311;BME280;11323;49.610;11.016;2023-05-03T23:06:10;98804.22;;;17.64;57.67
22311;BME280;11323;49.610;11.016;2023-05-03T23:11:11;98805.56;;;17.60;57.49
22311;BME280;11323;49.610;11.016;2023-05-03T23:16:11;98801.66;;;17.56;57.84
22311;BME280;11323;49.610;11.016;2023-05-03T23:21:12;98813.81;;;17.57;57.84
22311;BME280;11323;49.610;11.016;2023-05-03T23:26:13;98814.81;;;17.56;57.96
22311;BME280;11323;49.610;11.016;2023-05-03T23:31:13;98812.53;;;17.53;57.91
22311;BME280;11323;49.610;11.016;2023-05-03T23:36:14;98816.97;;;17.52;57.83
22311;BME280;11323;49.610;11.016;2023-05-03T23:41:14;98814.84;;;17.48;57.91
22311;BME280;11323;49.610;11.016;2023-05-03T23:46:15;98815.50;;;17.50;57.60
22311;BME280;11323;49.610;11.016;2023-05-03T23:51:15;98814.84;;;17.48;58.00
22311;BME280;11323;49.610;11.016;2023-05-03T23:56:15;98802.19;;;17.43;58.08
